Time;durP1;ratioP1;P1;durP2;ratioP2;P2;SDS_P1;SDS_P2;PMS_P1;PMS_P2;Temp;Humidity;BMP_temperature;BMP_pressure;BME280_temperature;BME280_humidity;BME280_pressure;Samples;Min_cycle;Max_cycle;Signal;HPM_P1;HPM_P2
2021/08/26 00:01:02;;;;;;;5.38;0.90;;;;;;;13.72;48.92;101319.91;5057121;28;20043;-68
2021/08/26 00:06:20;;;;;;;14.30;0.85;;;;;;;13.87;48.48;101323.56;5052476;28;20195;-68
2021/08/26 00:08:48;;;;;;;13.50;1.77;;;;;;;14.04;48.50;101318.38;5055403;28;20082;-68
2021/08/26 00:11:16;;;;;;;8.20;0.73;;;;;;;13.91;48.88;101319.88;5039791;28;20033;-68
2021/08/26 00:13:43;;;;;;;11.13;0.82;;;;;;;14.06;48.82;101320.94;5056055;28;20111;-69
2021/08/26 00:16:09;;;;;;;10.75;1.75;;;;;;;13.96;49.46;101314.41;5054743;28;20709;-68
2021/08/26 00:18:34;;;;;;;8.85;0.50;;;;;;;14.19;49.21;101308.91;5069910;28;20029;-68
2021/08/26 00:21:00;;;;;;;12.27;1.17;;;;;;;14.11;49.41;101308.44;5069107;28;20024;-68
2021/08/26 00:23:26;;;;;;;12.27;1.08;;;;;;;14.35;48.99;101309.88;5070884;28;20556;-69
2021/08/26 00:25:51;;;;;;;9.23;1.73;;;;;;;14.35;49.07;101312.50;5055074;28;20433;-68
2021/08/26 00:28:19;;;;;;;9.65;0.57;;;;;;;14.26;49.41;101312.94;5054996;28;20534;-68
2021/08/26 00:30:44;;;;;;;8.98;0.90;;;;;;;14.55;48.59;101313.31;5052140;28;20025;-68
2021/08/26 00:33:10;;;;;;;6.45;1.55;;;;;;;14.62;48.51;101301.56;5052615;28;20051;-68
2021/08/26 00:35:35;;;;;;;15.45;1.38;;;;;;;14.63;48.76;101303.25;5053177;28;20064;-68
2021/08/26 00:38:01;;;;;;;19.15;1.63;;;;;;;14.66;48.71;101302.28;5054193;28;20037;-68
2021/08/26 00:40:28;;;;;;;14.07;1.65;;;;;;;14.72;48.53;101299.31;5067293;28;20025;-68
2021/08/26 00:42:54;;;;;;;13.18;1.25;;;;;;;14.55;49.18;101310.69;5054256;28;20047;-68
2021/08/26 00:45:19;;;;;;;11.60;1.15;;;;;;;14.81;48.54;101303.25;5060089;28;20479;-68
2021/08/26 00:47:47;;;;;;;15.00;1.38;;;;;;;14.81;48.60;101298.00;5052191;28;20124;-69
2021/08/26 00:50:16;;;;;;;7.88;2.25;;;;;;;14.83;48.48;101298.75;5054583;28;20052;-69
2021/08/26 00:52:42;;;;;;;8.07;0.80;;;;;;;14.85;48.38;101296.91;5066296;28;20460;-68
2021/08/26 00:55:09;;;;;;;16.25;1.25;;;;;;;14.69;48.84;101289.78;5068379;28;20040;-69
2021/08/26 00:57:36;;;;;;;13.68;2.22;;;;;;;14.59;49.31;101291.22;5054438;28;20021;-68
2021/08/26 01:00:10;;;;;;;12.50;0.98;;;;;;;14.79;48.87;101284.94;5051079;28;20048;-68
2021/08/26 01:02:58;;;;;;;9.40;1.15;;;;;;;14.70;48.94;101281.00;5052188;28;20037;-68
2021/08/26 01:05:27;;;;;;;10.75;0.88;;;;;;;14.63;48.85;101284.84;5053934;28;20029;-68
2021/08/26 01:07:58;;;;;;;9.20;1.20;;;;;;;14.50;49.19;101289.00;5062993;28;20501;-68
2021/08/26 01:10:24;;;;;;;11.32;0.80;;;;;;;14.66;48.76;101287.34;5050632;28;20051;-68
2021/08/26 01:12:53;;;;;;;15.02;2.63;;;;;;;14.47;49.26;101289.19;5053193;28;20037;-68
2021/08/26 01:15:19;;;;;;;7.38;0.90;;;;;;;14.40;49.14;101282.50;5051005;28;20506;-69
2021/08/26 01:17:48;;;;;;;7.15;1.20;;;;;;;14.53;49.13;101284.47;5052113;28;20120;-69
2021/08/26 01:20:15;;;;;;;9.88;1.98;;;;;;;14.70;48.83;101283.63;5065171;28;20036;-68
2021/08/26 01:22:41;;;;;;;12.57;1.83;;;;;;;14.70;48.96;101283.63;5053556;28;20100;-69
2021/08/26 01:25:12;;;;;;;12.00;1.38;;;;;;;14.68;49.04;101277.59;5053692;28;20028;-68
2021/08/26 01:27:40;;;;;;;;;;;;;;;14.75;48.65;101273.69;5059866;28;20094;-69
2021/08/26 01:30:08;;;;;;;12.95;1.67;;;;;;;14.68;48.95;101274.94;5051241;28;19938;-69
2021/08/26 01:32:34;;;;;;;14.68;1.63;;;;;;;14.68;48.93;101274.94;5036552;28;20131;-68
2021/08/26 01:35:03;;;;;;;13.25;2.33;;;;;;;14.38;49.86;101268.56;5059284;28;20044;-69
2021/08/26 01:37:28;;;;;;;13.40;2.00;;;;;;;14.56;49.61;101267.66;5052375;28;20094;-69
2021/08/26 01:39:54;;;;;;;17.38;2.60;;;;;;;14.64;49.38;101273.41;5056211;28;20501;-69
2021/08/26 01:42:25;;;;;;;9.13;1.60;;;;;;;14.57;49.62;101269.38;5053189;28;20091;-68
2021/08/26 01:44:52;;;;;;;10.90;1.77;;;;;;;14.41;49.57;101271.06;5068022;28;20047;-69
2021/08/26 01:47:21;;;;;;;7.45;0.95;;;;;;;14.36;49.82;101264.22;5058384;28;20048;-68
2021/08/26 01:49:47;;;;;;;24.75;2.15;;;;;;;14.32;50.08;101261.81;5052748;28;20035;-68
2021/08/26 01:52:14;;;;;;;12.43;2.33;;;;;;;14.26;50.14;101272.66;5059619;28;20045;-68
2021/08/26 01:54:39;;;;;;;9.75;1.65;;;;;;;14.23;50.01;101278.94;5055008;28;20052;-68
2021/08/26 01:57:05;;;;;;;13.90;1.45;;;;;;;14.27;50.26;101267.31;5070750;28;20545;-68
2021/08/26 01:59:32;;;;;;;15.88;1.92;;;;;;;14.25;50.19;101269.16;5059088;28;20044;-68
2021/08/26 02:01:58;;;;;;;17.23;2.90;;;;;;;14.09;50.40;101257.72;5050828;28;20638;-68
2021/08/26 02:04:23;;;;;;;17.23;2.38;;;;;;;13.93;50.77;101252.34;5057568;28;20036;-70
2021/08/26 02:06:48;;;;;;;15.63;2.05;;;;;;;13.97;50.74;101247.81;5069908;28;20075;-69
2021/08/26 02:09:14;;;;;;;13.18;1.90;;;;;;;13.95;50.85;101245.25;5059867;28;20021;-68
2021/08/26 02:11:40;;;;;;;14.63;1.88;;;;;;;13.86;51.13;101243.91;5071563;28;20674;-68
2021/08/26 02:14:05;;;;;;;12.55;2.00;;;;;;;13.76;51.50;101241.78;5072755;28;20068;-68
2021/08/26 02:16:31;;;;;;;18.90;2.75;;;;;;;13.63;51.83;101247.63;5057355;28;20043;-68
2021/08/26 02:18:56;;;;;;;21.00;2.25;;;;;;;13.68;51.76;101236.91;5053291;28;20658;-68
2021/08/26 02:21:22;;;;;;;21.70;2.50;;;;;;;13.74;51.70;101233.97;5058895;28;20029;-69
2021/08/26 02:23:48;;;;;;;11.20;1.38;;;;;;;13.65;51.90;101227.41;5042498;28;20033;-68
2021/08/26 02:26:13;;;;;;;8.07;1.42;;;;;;;13.65;52.01;101235.28;5057361;28;20060;-68
2021/08/26 02:28:39;;;;;;;19.15;1.70;;;;;;;13.60;52.36;101228.53;5056764;28;20044;-68
2021/08/26 02:31:05;;;;;;;19.98;2.10;;;;;;;13.57;52.51;101223.44;5043275;28;20043;-68
2021/08/26 02:33:30;;;;;;;21.70;3.67;;;;;;;13.58;52.37;101225.97;5074084;28;20375;-68
2021/08/26 02:35:56;;;;;;;17.95;2.33;;;;;;;13.49;52.68;101224.59;5052406;28;20264;-68
2021/08/26 02:38:21;;;;;;;18.20;2.20;;;;;;;13.57;52.48;101215.56;5048176;28;20104;-68
2021/08/26 02:40:47;;;;;;;10.77;1.30;;;;;;;13.54;52.67;101234.91;5060582;28;20032;-68
2021/08/26 02:43:12;;;;;;;9.38;1.58;;;;;;;13.70;52.17;101225.41;5057444;28;20750;-68
2021/08/26 02:45:38;;;;;;;23.58;3.30;;;;;;;13.62;52.31;101229.31;5067108;28;20071;-68
2021/08/26 02:48:03;;;;;;;15.77;2.10;;;;;;;13.60;52.52;101244.28;5059520;28;20151;-67
2021/08/26 02:50:29;;;;;;;15.32;2.25;;;;;;;13.57;52.87;101239.19;5041749;28;20044;-67
2021/08/26 02:52:54;;;;;;;24.33;2.25;;;;;;;13.67;52.17;101232.56;5072904;28;20061;-67
2021/08/26 02:55:20;;;;;;;18.88;2.60;;;;;;;13.45;52.80;101224.81;5070850;28;20040;-67
2021/08/26 02:57:45;;;;;;;13.18;2.42;;;;;;;13.52;52.88;101227.09;5054257;28;20111;-69
2021/08/26 03:00:11;;;;;;;14.23;2.95;;;;;;;13.53;52.67;101234.03;5051360;28;20049;-68
2021/08/26 03:02:37;;;;;;;21.50;2.55;;;;;;;13.52;52.26;101221.84;5054813;28;20116;-68
2021/08/26 03:05:03;;;;;;;13.77;1.85;;;;;;;13.47;52.58;101231.72;5062429;28;20183;-69
2021/08/26 03:07:28;;;;;;;22.25;3.25;;;;;;;13.47;52.23;101229.09;5057750;28;20044;-68
2021/08/26 03:09:54;;;;;;;11.27;1.85;;;;;;;13.44;52.41;101225.75;5053605;28;20028;-67
2021/08/26 03:12:19;;;;;;;19.33;2.25;;;;;;;13.39;52.69;101223.34;5054158;28;20426;-68
2021/08/26 03:14:45;;;;;;;15.27;2.10;;;;;;;13.30;52.88;101226.38;5055000;28;20580;-68
2021/08/26 03:17:10;;;;;;;24.80;3.05;;;;;;;13.39;52.63;101225.13;5053533;28;20047;-68
2021/08/26 03:19:35;;;;;;;18.02;3.28;;;;;;;13.34;52.72;101220.09;5054159;28;20025;-68
2021/08/26 03:22:01;;;;;;;15.98;2.15;;;;;;;13.30;52.73;101229.84;5058605;28;20066;-68
2021/08/26 03:24:26;;;;;;;10.73;1.85;;;;;;;13.30;52.64;101227.22;5054151;28;20087;-68
2021/08/26 03:26:52;;;;;;;23.80;3.65;;;;;;;13.29;52.89;101229.91;5058291;28;20032;-68
2021/08/26 03:29:17;;;;;;;13.88;1.98;;;;;;;13.25;52.86;101228.34;5051845;28;20620;-67
2021/08/26 03:31:43;;;;;;;15.75;2.08;;;;;;;13.25;53.19;101220.47;5057661;28;20036;-68
2021/08/26 03:34:08;;;;;;;18.27;2.65;;;;;;;13.26;53.18;101220.41;5054249;28;20037;-68
2021/08/26 03:36:34;;;;;;;18.83;2.47;;;;;;;13.17;53.49;101220.00;5057731;28;20028;-68
2021/08/26 03:38:59;;;;;;;12.18;2.72;;;;;;;13.22;53.54;101218.84;5054954;28;20024;-68
2021/08/26 03:41:25;;;;;;;20.75;2.25;;;;;;;13.29;53.52;101222.03;5061772;28;20097;-68
2021/08/26 03:43:51;;;;;;;17.17;2.30;;;;;;;13.31;53.24;101212.31;5057738;28;20122;-68
2021/08/26 03:46:18;;;;;;;22.70;3.47;;;;;;;13.30;53.71;101219.34;5053963;28;20109;-68
2021/08/26 03:48:43;;;;;;;12.45;2.13;;;;;;;13.29;53.71;101220.28;5053742;28;20032;-68
2021/08/26 03:51:09;;;;;;;12.57;2.10;;;;;;;13.33;53.37;101219.19;5053109;28;20055;-69
2021/08/26 03:53:35;;;;;;;26.38;2.80;;;;;;;13.23;53.98;101219.72;5055651;28;20040;-68
2021/08/26 03:56:01;;;;;;;18.80;3.05;;;;;;;13.27;53.68;101216.88;5052788;28;20043;-68
2021/08/26 03:58:26;;;;;;;25.55;3.15;;;;;;;13.23;54.13;101214.47;5058677;28;20127;-68
2021/08/26 04:00:52;;;;;;;9.90;2.97;;;;;;;13.28;54.04;101218.56;5069799;28;20101;-68
2021/08/26 04:03:17;;;;;;;14.27;2.28;;;;;;;13.27;53.65;101213.38;5054194;28;20039;-68
2021/08/26 04:05:43;;;;;;;17.65;3.30;;;;;;;13.25;53.84;101207.34;5068696;28;20043;-68
2021/08/26 04:08:08;;;;;;;14.55;2.10;;;;;;;13.22;53.88;101212.75;5055763;28;20036;-67
2021/08/26 04:10:34;;;;;;;19.98;2.88;;;;;;;13.18;53.68;101216.44;5058822;28;20065;-68
2021/08/26 04:12:59;;;;;;;12.95;2.58;;;;;;;13.21;53.89;101216.31;5053632;28;20792;-67
2021/08/26 04:15:25;;;;;;;15.75;2.65;;;;;;;13.17;53.68;101215.59;5054018;28;20127;-67
2021/08/26 04:17:50;;;;;;;8.93;2.40;;;;;;;13.22;53.41;101218.84;5057260;28;20039;-67
2021/08/26 04:20:16;;;;;;;14.82;2.58;;;;;;;13.17;53.89;101220.00;5051317;28;20659;-68
2021/08/26 04:22:41;;;;;;;10.73;2.25;;;;;;;13.18;53.52;101221.69;5062690;28;20083;-68
2021/08/26 04:25:07;;;;;;;11.35;2.53;;;;;;;13.16;54.16;101213.03;5055233;28;20048;-68
2021/08/26 04:27:33;;;;;;;14.80;2.33;;;;;;;13.11;54.39;101214.06;5052701;28;20021;-68
2021/08/26 04:29:58;;;;;;;16.98;1.85;;;;;;;13.18;54.48;101219.06;5054582;28;20035;-68
2021/08/26 04:32:24;;;;;;;23.90;2.85;;;;;;;13.21;54.29;101218.94;5050992;28;20036;-68
2021/08/26 04:34:50;;;;;;;11.82;2.45;;;;;;;13.20;54.22;101222.47;5038036;28;20046;-68
2021/08/26 04:37:15;;;;;;;23.13;3.55;;;;;;;13.23;54.29;101220.56;5060839;28;20031;-68
2021/08/26 04:39:41;;;;;;;15.93;2.65;;;;;;;13.28;54.07;101212.47;5070607;28;20032;-69
2021/08/26 04:42:06;;;;;;;22.88;2.97;;;;;;;13.26;54.27;101202.03;5052297;28;20545;-68
2021/08/26 04:44:32;;;;;;;11.20;1.88;;;;;;;13.28;54.39;101202.81;5057047;28;20492;-68
2021/08/26 04:46:57;;;;;;;23.80;2.90;;;;;;;13.27;54.10;101205.50;5068035;28;20059;-69
2021/08/26 04:49:23;;;;;;;16.00;2.70;;;;;;;13.37;54.32;101213.84;5052933;28;20830;-68
2021/08/26 04:51:48;;;;;;;10.75;2.40;;;;;;;13.36;54.35;101218.25;5071683;28;20035;-68
2021/08/26 04:54:14;;;;;;;18.40;3.13;;;;;;;13.46;54.13;101211.63;5050535;28;20016;-68
2021/08/26 04:56:40;;;;;;;19.60;2.85;;;;;;;13.47;53.92;101213.34;5056606;28;20142;-69
2021/08/26 04:59:06;;;;;;;11.45;2.03;;;;;;;13.42;54.13;101210.06;5050696;28;20057;-68
2021/08/26 05:01:31;;;;;;;13.30;2.63;;;;;;;13.43;54.11;101211.78;5051832;28;20513;-68
2021/08/26 05:03:57;;;;;;;20.42;3.38;;;;;;;13.44;53.93;101216.09;5054676;28;20871;-68
2021/08/26 05:06:22;;;;;;;17.63;3.00;;;;;;;13.50;54.23;101228.09;5069888;28;20099;-68
2021/08/26 05:08:48;;;;;;;18.83;2.55;;;;;;;13.66;53.99;101228.25;5067924;28;20453;-68
2021/08/26 05:11:18;;;;;;;15.52;2.20;;;;;;;13.79;53.73;101224.13;5052067;28;20108;-68
2021/08/26 05:13:45;;;;;;;18.92;3.05;;;;;;;13.94;53.59;101228.63;5054608;28;20497;-68
2021/08/26 05:16:10;;;;;;;14.23;2.50;;;;;;;13.97;53.38;101232.03;5058128;28;20044;-68
2021/08/26 05:18:36;;;;;;;17.77;3.00;;;;;;;13.82;53.33;101234.47;5054191;28;20032;-68
2021/08/26 05:21:02;;;;;;;15.38;5.10;;;;;;;14.03;53.50;101232.59;5052515;28;20038;-68
2021/08/26 05:23:29;;;;;;;16.52;2.55;;;;;;;14.51;52.71;101235.50;5055774;28;20025;-68
2021/08/26 05:25:55;;;;;;;18.55;3.28;;;;;;;15.23;51.30;101230.91;5056802;28;20037;-69
2021/08/26 05:28:20;;;;;;;15.93;2.55;;;;;;;15.59;50.30;101225.38;5058682;28;20025;-68
2021/08/26 05:30:46;;;;;;;16.45;2.47;;;;;;;15.86;49.07;101230.88;5057730;28;20025;-68
2021/08/26 05:33:11;;;;;;;17.83;4.10;;;;;;;16.05;48.83;101232.53;5060862;28;20054;-67
2021/08/26 05:35:37;;;;;;;18.67;3.05;;;;;;;17.45;46.31;101230.22;5058649;28;20032;-69
2021/08/26 05:38:03;;;;;;;15.32;2.58;;;;;;;18.88;42.81;101234.03;5056394;28;20071;-69
2021/08/26 05:40:28;;;;;;;19.27;3.05;;;;;;;19.05;41.05;101235.50;5039873;28;20051;-69
2021/08/26 05:42:54;;;;;;;13.88;2.58;;;;;;;19.95;39.23;101241.41;5058179;28;20394;-68
2021/08/26 05:45:19;;;;;;;15.85;2.47;;;;;;;21.01;38.10;101229.84;5055104;28;20060;-67
2021/08/26 05:47:45;;;;;;;16.52;2.30;;;;;;;20.87;36.74;101231.78;5063358;28;20019;-68
2021/08/26 05:50:10;;;;;;;10.70;1.70;;;;;;;19.43;39.90;101223.97;5055762;28;20044;-67
2021/08/26 05:52:36;;;;;;;15.25;1.95;;;;;;;18.26;41.91;101224.13;5056092;28;20438;-68
2021/08/26 05:55:02;;;;;;;15.90;2.47;;;;;;;18.32;42.88;101230.78;5055129;28;20052;-70
2021/08/26 05:57:27;;;;;;;13.98;1.67;;;;;;;18.37;42.32;101234.00;5068151;28;20637;-68
2021/08/26 05:59:53;;;;;;;13.68;2.05;;;;;;;17.74;44.03;101240.72;5053371;28;20562;-68
2021/08/26 06:02:18;;;;;;;15.35;2.53;;;;;;;17.15;44.68;101236.47;5057265;28;20465;-68
2021/08/26 06:04:44;;;;;;;13.32;2.20;;;;;;;16.87;45.42;101240.00;5056057;28;20666;-68
2021/08/26 06:07:09;;;;;;;13.90;1.85;;;;;;;16.32;46.77;101249.38;5069744;28;20812;-68
2021/08/26 06:09:35;;;;;;;11.50;2.60;;;;;;;16.41;46.76;101248.81;5070840;28;20037;-68
2021/08/26 06:12:00;;;;;;;19.27;2.38;;;;;;;16.30;47.28;101245.13;5055493;28;20021;-67
2021/08/26 06:14:26;;;;;;;20.98;2.85;;;;;;;16.02;47.87;101253.75;5059711;28;20040;-68
2021/08/26 06:16:51;;;;;;;13.82;3.15;;;;;;;15.95;48.45;101256.75;5059203;28;20041;-69
2021/08/26 06:19:17;;;;;;;12.43;2.45;;;;;;;15.98;48.61;101258.34;5059879;28;20025;-68
2021/08/26 06:21:45;;;;;;;16.20;2.67;;;;;;;15.87;48.86;101255.47;5059567;28;20394;-68
2021/08/26 06:24:11;;;;;;;25.95;2.58;;;;;;;15.74;49.13;101252.66;5050709;28;20636;-70
2021/08/26 06:26:37;;;;;;;13.60;3.13;;;;;;;15.61;49.59;101256.91;5053697;28;20060;-69
2021/08/26 06:29:04;;;;;;;16.25;2.90;;;;;;;15.57;49.52;101251.84;5052749;28;20056;-70
2021/08/26 06:31:30;;;;;;;24.33;3.05;;;;;;;15.80;49.59;101257.59;5051687;28;20049;-70
2021/08/26 06:33:56;;;;;;;23.92;4.13;;;;;;;15.89;49.84;101267.63;5055110;28;20033;-69
2021/08/26 06:36:21;;;;;;;16.13;1.77;;;;;;;16.05;49.75;101265.00;5060773;28;20056;-70
2021/08/26 06:38:47;;;;;;;11.25;2.30;;;;;;;16.37;48.40;101262.28;5054404;28;20065;-69
2021/08/26 06:41:12;;;;;;;22.95;2.85;;;;;;;16.92;47.39;101266.09;5061465;28;20065;-68
2021/08/26 06:43:38;;;;;;;24.58;2.75;;;;;;;18.78;43.95;101265.56;5067278;28;20437;-67
2021/08/26 06:46:03;;;;;;;12.18;1.92;;;;;;;22.06;37.79;101256.84;5081233;28;20120;-67
2021/08/26 06:48:29;;;;;;;14.85;1.70;;;;;;;24.77;31.98;101253.31;5067040;28;20032;-69
2021/08/26 06:50:54;;;;;;;14.25;1.38;;;;;;;24.70;30.93;101254.88;5058873;28;20025;-69
2021/08/26 06:53:20;;;;;;;8.05;1.83;;;;;;;23.17;33.47;101256.31;5057025;28;20517;-68
2021/08/26 06:55:45;;;;;;;20.42;3.30;;;;;;;22.18;35.48;101247.84;5058359;28;20482;-68
2021/08/26 06:58:11;;;;;;;14.05;2.17;;;;;;;21.60;37.01;101248.19;5057357;28;20054;-69
2021/08/26 07:00:36;;;;;;;13.32;2.25;;;;;;;23.57;34.34;101247.47;5056705;28;20047;-67
2021/08/26 07:03:02;;;;;;;11.02;1.88;;;;;;;22.86;34.03;101242.16;5060506;28;20097;-67
2021/08/26 07:05:28;;;;;;;16.52;2.88;;;;;;;21.54;36.72;101248.69;5060242;28;20508;-68
2021/08/26 07:07:53;;;;;;;19.00;2.08;;;;;;;22.27;36.00;101252.44;5077941;28;20021;-67
2021/08/26 07:10:19;;;;;;;19.67;2.45;;;;;;;25.04;31.01;101255.22;5062780;28;20079;-69
2021/08/26 07:12:45;;;;;;;13.50;2.20;;;;;;;25.59;29.84;101253.50;5073825;28;20493;-68
2021/08/26 07:15:10;;;;;;;12.82;2.60;;;;;;;26.80;28.40;101248.47;5059829;28;20478;-68
2021/08/26 07:17:36;;;;;;;10.57;2.20;;;;;;;27.78;26.17;101256.91;5059019;28;20590;-69
2021/08/26 07:20:04;;;;;;;21.48;2.22;;;;;;;28.42;25.80;101267.00;5058442;28;20368;-68
2021/08/26 07:22:29;;;;;;;11.07;1.40;;;;;;;28.51;25.42;101260.59;5038016;28;20044;-69
2021/08/26 07:24:55;;;;;;;15.10;3.13;;;;;;;27.92;26.32;101261.63;5058852;28;20927;-69
2021/08/26 07:27:20;;;;;;;9.90;1.08;;;;;;;25.52;29.41;101257.78;5054623;28;20025;-69
2021/08/26 07:29:46;;;;;;;15.23;2.03;;;;;;;24.24;30.86;101257.34;5056016;28;20632;-69
2021/08/26 07:32:12;;;;;;;8.38;1.67;;;;;;;23.26;33.20;101250.16;5054799;28;20041;-69
2021/08/26 07:34:37;;;;;;;12.65;1.45;;;;;;;22.92;33.82;101253.13;5056117;28;20087;-68
2021/08/26 07:37:03;;;;;;;18.17;2.42;;;;;;;22.74;33.86;101260.88;5069695;28;20139;-69
2021/08/26 07:39:29;;;;;;;12.35;1.90;;;;;;;21.58;35.57;101258.09;5070281;28;20029;-69
2021/08/26 07:41:54;;;;;;;16.60;1.90;;;;;;;20.67;37.83;101254.56;5053624;28;20127;-68
2021/08/26 07:44:20;;;;;;;17.88;1.85;;;;;;;19.94;39.46;101257.44;5052806;28;20044;-67
2021/08/26 07:46:45;;;;;;;15.30;2.35;;;;;;;19.37;40.71;101264.16;5059503;28;20056;-68
2021/08/26 07:49:10;;;;;;;15.30;1.88;;;;;;;18.85;42.16;101255.41;5056630;28;20295;-69
2021/08/26 07:51:36;;;;;;;11.45;1.88;;;;;;;18.83;41.86;101247.56;5063855;28;20116;-70
2021/08/26 07:54:02;;;;;;;15.88;1.67;;;;;;;19.30;41.98;101256.66;5057015;28;20043;-68
2021/08/26 07:56:27;;;;;;;11.57;1.88;;;;;;;19.52;41.04;101260.41;5038843;28;20094;-68
2021/08/26 07:58:52;;;;;;;9.50;1.85;;;;;;;19.64;41.01;101264.88;5070290;28;20086;-67
2021/08/26 08:01:18;;;;;;;21.50;2.15;;;;;;;19.20;41.58;101262.72;5054093;28;20029;-69
2021/08/26 08:03:44;;;;;;;4.03;0.60;;;;;;;18.62;38.93;101264.94;5058823;28;21042;-69
2021/08/26 08:06:11;;;;;;;3.58;0.82;;;;;;;18.54;38.03;101272.53;5049019;28;20033;-68
2021/08/26 08:08:37;;;;;;;3.50;0.22;;;;;;;18.21;38.49;101281.78;5052670;28;20040;-69
2021/08/26 08:11:02;;;;;;;5.63;0.40;;;;;;;18.23;38.75;101293.97;5057736;28;20029;-69
2021/08/26 08:13:28;;;;;;;3.95;0.20;;;;;;;18.08;39.17;101294.09;5052023;28;20417;-69
2021/08/26 08:15:54;;;;;;;8.60;0.50;;;;;;;17.15;40.53;101301.66;5048143;28;20037;-70
2021/08/26 08:18:19;;;;;;;9.85;0.40;;;;;;;17.18;40.44;101307.63;5059845;28;20398;-70
2021/08/26 08:20:46;;;;;;;10.90;0.98;;;;;;;17.19;40.05;101301.38;5054341;28;20037;-69
2021/08/26 08:23:12;;;;;;;1.75;0.35;;;;;;;17.33;39.23;101297.03;5054610;28;20033;-68
2021/08/26 08:25:37;;;;;;;3.00;0.17;;;;;;;17.10;39.24;101309.03;5061884;28;20043;-69
2021/08/26 08:28:14;;;;;;;1.17;0.40;;;;;;;17.55;38.53;101300.06;5063243;28;20063;-69
2021/08/26 08:30:40;;;;;;;2.03;0.15;;;;;;;18.24;35.65;101305.41;5052625;28;20094;-69
2021/08/26 08:33:06;;;;;;;3.30;0.15;;;;;;;18.86;34.57;101307.44;5051938;28;20036;-70
2021/08/26 08:35:31;;;;;;;1.25;0.17;;;;;;;18.00;34.02;101316.59;5051507;28;20033;-70
2021/08/26 08:37:57;;;;;;;1.40;0.10;;;;;;;17.70;33.77;101305.34;5050240;28;20041;-72
2021/08/26 08:40:22;;;;;;;2.90;0.10;;;;;;;17.97;34.41;101310.66;5065217;28;20037;-69
2021/08/26 08:42:48;;;;;;;4.65;0.30;;;;;;;18.13;34.01;101321.94;5050943;28;20046;-68
2021/08/26 08:45:14;;;;;;;2.08;0.10;;;;;;;17.80;34.42;101314.38;5045717;28;20052;-68
2021/08/26 08:47:41;;;;;;;3.05;0.30;;;;;;;18.27;34.86;101311.34;5051333;28;20940;-69
2021/08/26 08:50:07;;;;;;;3.72;0.20;;;;;;;18.13;35.09;101307.88;5047927;28;20398;-70
2021/08/26 08:52:37;;;;;;;5.68;0.10;;;;;;;18.68;34.50;101317.47;5053602;28;20044;-69
2021/08/26 08:55:05;;;;;;;0.50;0.10;;;;;;;18.40;35.03;101302.56;5068617;28;20047;-70
2021/08/26 08:57:31;;;;;;;2.72;0.10;;;;;;;18.66;34.95;101304.31;5062517;28;20642;-68
2021/08/26 08:59:56;;;;;;;1.27;0.10;;;;;;;18.87;34.49;101302.03;5058339;28;20055;-69
2021/08/26 09:02:22;;;;;;;4.38;0.28;;;;;;;19.28;33.87;101306.28;5054546;28;20457;-69
2021/08/26 09:04:56;;;;;;;6.47;0.20;;;;;;;19.35;32.65;101304.03;5060878;28;20037;-70
2021/08/26 09:07:26;;;;;;;1.55;0.10;;;;;;;19.73;33.58;101311.09;5051996;28;20037;-69
2021/08/26 09:09:55;;;;;;;4.68;0.10;;;;;;;20.19;32.35;101306.88;5052152;28;20104;-70
2021/08/26 09:12:40;;;;;;;2.83;0.10;;;;;;;19.54;32.42;101306.22;5070330;28;20036;-71
2021/08/26 09:15:11;;;;;;;3.65;0.08;;;;;;;20.08;30.68;101318.25;5053266;28;20037;-70
2021/08/26 09:17:37;;;;;;;0.90;0.10;;;;;;;19.62;31.74;101314.50;5060239;28;20028;-71
2021/08/26 09:20:10;;;;;;;0.70;0.20;;;;;;;20.45;31.27;101324.38;5051999;28;20074;-69
2021/08/26 09:22:36;;;;;;;1.85;0.05;;;;;;;21.15;30.34;101322.63;5053054;28;20086;-69
2021/08/26 09:25:03;;;;;;;2.20;0.10;;;;;;;20.88;30.61;101328.28;5069684;28;20253;-69
2021/08/26 09:27:32;;;;;;;3.42;0.25;;;;;;;20.45;31.00;101329.69;5057770;28;20040;-69
2021/08/26 09:30:04;;;;;;;3.97;0.35;;;;;;;19.95;32.53;101339.56;5053787;28;20520;-69
2021/08/26 09:32:37;;;;;;;4.43;0.25;;;;;;;20.20;32.26;101335.13;5059385;28;20085;-68
2021/08/26 09:35:13;;;;;;;2.10;0.10;;;;;;;20.44;31.91;101333.31;5054334;28;20044;-69
2021/08/26 09:37:59;;;;;;;3.92;0.15;;;;;;;20.71;32.40;101345.47;5052625;28;20085;-71
2021/08/26 09:40:33;;;;;;;7.22;0.17;;;;;;;20.28;31.62;101346.03;5063474;28;20058;-70
2021/08/26 09:43:06;;;;;;;3.95;0.30;;;;;;;20.05;31.67;101345.03;5052239;28;20094;-69
2021/08/26 09:45:37;;;;;;;3.55;0.10;;;;;;;21.32;30.03;101346.06;5060947;28;20032;-69
2021/08/26 09:48:05;;;;;;;2.28;0.10;;;;;;;21.34;29.30;101351.28;5052925;28;20096;-70
2021/08/26 09:50:48;;;;;;;2.13;0.10;;;;;;;21.13;28.47;101353.78;5061053;28;20036;-68
2021/08/26 09:53:36;;;;;;;2.38;0.10;;;;;;;21.10;28.92;101362.00;5058703;28;20091;-68
2021/08/26 09:56:04;;;;;;;5.32;0.20;;;;;;;20.77;29.57;101360.94;5053132;28;20083;-67
2021/08/26 09:58:35;;;;;;;2.35;0.10;;;;;;;19.86;29.33;101359.66;5051179;28;20039;-69
2021/08/26 10:01:17;;;;;;;3.28;0.10;;;;;;;19.60;30.45;101348.25;5049644;28;20040;-69
2021/08/26 10:03:43;;;;;;;2.42;0.10;;;;;;;20.66;29.49;101363.56;5051668;28;20055;-71
2021/08/26 10:06:11;;;;;;;1.92;0.30;;;;;;;20.53;29.31;101358.34;5063621;28;20044;-68
2021/08/26 10:08:40;;;;;;;2.20;0.13;;;;;;;20.86;30.02;101370.03;5058553;28;20029;-68
2021/08/26 10:11:08;;;;;;;1.35;0.15;;;;;;;20.82;29.29;101363.22;5066572;28;20028;-69
2021/08/26 10:13:34;;;;;;;2.22;0.17;;;;;;;20.38;29.96;101365.63;5066108;28;20053;-69
2021/08/26 10:16:00;;;;;;;2.28;0.10;;;;;;;20.10;30.77;101359.69;5052746;28;20035;-69
2021/08/26 10:18:28;;;;;;;3.72;0.43;;;;;;;20.32;30.17;101361.59;5052599;28;20037;-69
2021/08/26 10:21:00;;;;;;;1.85;0.55;;;;;;;20.12;30.96;101363.03;5054112;28;20532;-67
2021/08/26 10:23:26;;;;;;;3.78;0.10;;;;;;;19.87;31.43;101356.03;5066373;28;20336;-69
2021/08/26 10:25:56;;;;;;;5.65;0.43;;;;;;;19.62;31.31;101362.25;5052763;28;20033;-68
2021/08/26 10:28:22;;;;;;;1.90;0.10;;;;;;;19.34;31.93;101359.78;5052272;28;20029;-68
2021/08/26 10:30:48;;;;;;;4.05;0.22;;;;;;;19.77;31.20;101362.97;5059517;28;20501;-70
2021/08/26 10:33:27;;;;;;;3.55;0.35;;;;;;;20.52;31.69;101361.94;5045470;28;20075;-70
2021/08/26 10:35:53;;;;;;;3.58;0.20;;;;;;;19.85;31.29;101371.19;5061436;28;20045;-70
2021/08/26 10:38:28;;;;;;;4.03;0.20;;;;;;;19.24;31.97;101364.91;5060004;28;20039;-70
2021/08/26 10:40:56;;;;;;;3.72;0.30;;;;;;;19.42;32.03;101381.31;5053073;28;20728;-69
2021/08/26 10:43:38;;;;;;;5.40;0.43;;;;;;;19.94;31.25;101382.94;5059777;22;20433;-67
2021/08/26 10:46:07;;;;;;;3.75;0.30;;;;;;;19.83;30.71;101372.28;5041113;28;20628;-68
2021/08/26 10:48:33;;;;;;;6.18;0.38;;;;;;;19.87;31.03;101376.41;5038048;28;20040;-68
2021/08/26 10:51:17;;;;;;;3.10;0.10;;;;;;;20.59;30.05;101383.56;5033976;28;20059;-68
2021/08/26 10:53:48;;;;;;;2.40;0.10;;;;;;;19.91;30.72;101383.19;5036497;28;20567;-71
2021/08/26 10:56:34;;;;;;;6.32;0.73;;;;;;;19.79;31.07;101384.03;5031864;28;20041;-69
2021/08/26 10:59:01;;;;;;;4.40;0.22;;;;;;;19.57;31.81;101374.97;5036513;28;20037;-68
2021/08/26 11:01:35;;;;;;;4.10;0.30;;;;;;;19.37;31.89;101383.41;5037501;28;20037;-66
2021/08/26 11:04:07;;;;;;;9.88;0.52;;;;;;;18.93;32.09;101390.00;5034583;28;20056;-68
2021/08/26 11:06:34;;;;;;;4.35;0.20;;;;;;;19.04;32.04;101392.75;5036698;28;20025;-67
2021/08/26 11:09:12;;;;;;;0.98;0.10;;;;;;;19.59;31.47;101388.97;5050873;28;20466;-67
2021/08/26 11:11:45;;;;;;;2.22;0.30;;;;;;;19.93;31.13;101386.56;5039443;28;20276;-68
2021/08/26 11:14:23;;;;;;;2.72;0.20;;;;;;;19.97;31.08;101389.84;5034853;28;20048;-67
2021/08/26 11:16:50;;;;;;;4.13;0.20;;;;;;;20.32;30.80;101382.84;5036357;28;20025;-69
2021/08/26 11:19:16;;;;;;;2.28;0.15;;;;;;;19.99;31.85;101391.41;5031439;28;20110;-67
2021/08/26 11:21:50;;;;;;;6.45;0.70;;;;;;;19.95;31.43;101395.28;5035991;28;20513;-67